sensor_id;sensor_type;location;lat;lon;timestamp;temperature;humidity
41142;SHT31;63666;52.284;20.890;2023-02-28T00:00:57;20.37;36.67
41142;SHT31;63666;52.284;20.890;2023-02-28T00:03:30;20.35;36.67
41142;SHT31;63666;52.284;20.890;2023-02-28T00:06:06;20.33;36.70
41142;SHT31;63666;52.284;20.890;2023-02-28T00:08:40;20.32;36.66
41142;SHT31;63666;52.284;20.890;2023-02-28T00:11:13;20.32;36.62
41142;SHT31;63666;52.284;20.890;2023-02-28T00:13:47;20.27;36.62
41142;SHT31;63666;52.284;20.890;2023-02-28T00:16:18;20.25;36.69
41142;SHT31;63666;52.284;20.890;2023-02-28T00:18:52;20.24;36.65
41142;SHT31;63666;52.284;20.890;2023-02-28T00:21:22;20.23;36.58
41142;SHT31;63666;52.284;20.890;2023-02-28T00:24:00;20.22;36.59
41142;SHT31;63666;52.284;20.890;2023-02-28T00:26:32;20.17;36.63
41142;SHT31;63666;52.284;20.890;2023-02-28T00:29:03;20.11;36.70
41142;SHT31;63666;52.284;20.890;2023-02-28T00:31:33;20.11;36.67
41142;SHT31;63666;52.284;20.890;2023-02-28T00:34:03;20.08;36.65
41142;SHT31;63666;52.284;20.890;2023-02-28T00:36:33;20.06;36.68
41142;SHT31;63666;52.284;20.890;2023-02-28T00:39:05;20.07;36.62
41142;SHT31;63666;52.284;20.890;2023-02-28T00:41:38;20.03;36.61
41142;SHT31;63666;52.284;20.890;2023-02-28T00:44:08;19.97;36.68
41142;SHT31;63666;52.284;20.890;2023-02-28T00:46:38;20.00;36.58
41142;SHT31;63666;52.284;20.890;2023-02-28T00:49:08;19.97;36.55
41142;SHT31;63666;52.284;20.890;2023-02-28T00:51:39;19.95;36.54
41142;SHT31;63666;52.284;20.890;2023-02-28T00:54:09;19.92;36.52
41142;SHT31;63666;52.284;20.890;2023-02-28T00:56:39;19.89;36.57
41142;SHT31;63666;52.284;20.890;2023-02-28T00:59:09;19.91;36.49
41142;SHT31;63666;52.284;20.890;2023-02-28T01:01:42;19.92;36.40
41142;SHT31;63666;52.284;20.890;2023-02-28T01:04:16;19.89;36.43
41142;SHT31;63666;52.284;20.890;2023-02-28T01:06:50;19.87;36.42
41142;SHT31;63666;52.284;20.890;2023-02-28T01:09:20;19.86;36.35
41142;SHT31;63666;52.284;20.890;2023-02-28T01:11:51;19.86;36.30
41142;SHT31;63666;52.284;20.890;2023-02-28T01:14:24;19.84;36.33
41142;SHT31;63666;52.284;20.890;2023-02-28T01:16:57;19.83;36.30
41142;SHT31;63666;52.284;20.890;2023-02-28T01:19:28;19.81;36.23
41142;SHT31;63666;52.284;20.890;2023-02-28T01:22:01;19.80;36.26
41142;SHT31;63666;52.284;20.890;2023-02-28T01:24:33;19.77;36.23
41142;SHT31;63666;52.284;20.890;2023-02-28T01:27:06;19.78;36.20
41142;SHT31;63666;52.284;20.890;2023-02-28T01:29:36;19.77;36.15
41142;SHT31;63666;52.284;20.890;2023-02-28T01:32:07;19.73;36.17
41142;SHT31;63666;52.284;20.890;2023-02-28T01:34:40;19.74;36.10
41142;SHT31;63666;52.284;20.890;2023-02-28T01:37:11;19.70;36.17
41142;SHT31;63666;52.284;20.890;2023-02-28T01:39:44;19.70;36.14
41142;SHT31;63666;52.284;20.890;2023-02-28T01:42:15;19.70;36.11
41142;SHT31;63666;52.284;20.890;2023-02-28T01:44:59;19.66;36.10
41142;SHT31;63666;52.284;20.890;2023-02-28T01:47:42;19.64;36.11
41142;SHT31;63666;52.284;20.890;2023-02-28T01:50:16;19.63;36.03
41142;SHT31;63666;52.284;20.890;2023-02-28T01:52:50;19.62;36.07
41142;SHT31;63666;52.284;20.890;2023-02-28T01:55:22;19.61;36.06
41142;SHT31;63666;52.284;20.890;2023-02-28T01:58:01;19.60;36.00
41142;SHT31;63666;52.284;20.890;2023-02-28T02:00:33;19.60;35.98
41142;SHT31;63666;52.284;20.890;2023-02-28T02:03:06;19.58;35.99
41142;SHT31;63666;52.284;20.890;2023-02-28T02:05:43;19.52;36.06
41142;SHT31;63666;52.284;20.890;2023-02-28T02:08:15;19.53;36.02
41142;SHT31;63666;52.284;20.890;2023-02-28T02:10:52;19.53;35.96
41142;SHT31;63666;52.284;20.890;2023-02-28T02:13:40;19.51;35.98
41142;SHT31;63666;52.284;20.890;2023-02-28T02:16:43;19.51;35.90
41142;SHT31;63666;52.284;20.890;2023-02-28T02:23:09;19.50;35.89
41142;SHT31;63666;52.284;20.890;2023-02-28T02:26:00;19.46;35.89
41142;SHT31;63666;52.284;20.890;2023-02-28T02:28:56;19.46;35.87
41142;SHT31;63666;52.284;20.890;2023-02-28T02:32:16;19.42;35.87
41142;SHT31;63666;52.284;20.890;2023-02-28T02:35:15;19.43;35.79
41142;SHT31;63666;52.284;20.890;2023-02-28T02:37:55;19.40;35.81
41142;SHT31;63666;52.284;20.890;2023-02-28T02:40:35;19.41;35.79
41142;SHT31;63666;52.284;20.890;2023-02-28T02:43:15;19.41;35.73
41142;SHT31;63666;52.284;20.890;2023-02-28T02:45:51;19.37;35.71
41142;SHT31;63666;52.284;20.890;2023-02-28T02:48:26;19.34;35.76
41142;SHT31;63666;52.284;20.890;2023-02-28T02:51:00;19.35;35.72
41142;SHT31;63666;52.284;20.890;2023-02-28T02:53:40;19.36;35.70
41142;SHT31;63666;52.284;20.890;2023-02-28T02:56:17;19.33;35.69
41142;SHT31;63666;52.284;20.890;2023-02-28T02:58:53;19.34;35.64
41142;SHT31;63666;52.284;20.890;2023-02-28T03:01:29;19.31;35.65
41142;SHT31;63666;52.284;20.890;2023-02-28T03:04:02;19.30;35.62
41142;SHT31;63666;52.284;20.890;2023-02-28T03:06:36;19.29;35.61
41142;SHT31;63666;52.284;20.890;2023-02-28T03:09:09;19.28;35.61
41142;SHT31;63666;52.284;20.890;2023-02-28T03:11:42;19.28;35.65
41142;SHT31;63666;52.284;20.890;2023-02-28T03:14:18;19.27;35.73
41142;SHT31;63666;52.284;20.890;2023-02-28T03:17:12;19.27;35.80
41142;SHT31;63666;52.284;20.890;2023-02-28T03:20:18;19.25;35.83
41142;SHT31;63666;52.284;20.890;2023-02-28T03:25:56;19.21;35.97
41142;SHT31;63666;52.284;20.890;2023-02-28T03:28:34;19.20;36.00
41142;SHT31;63666;52.284;20.890;2023-02-28T03:31:14;19.19;36.01
41142;SHT31;63666;52.284;20.890;2023-02-28T03:33:50;19.19;36.02
41142;SHT31;63666;52.284;20.890;2023-02-28T03:36:29;19.17;36.05
41142;SHT31;63666;52.284;20.890;2023-02-28T03:39:04;19.17;36.07
41142;SHT31;63666;52.284;20.890;2023-02-28T03:41:40;19.18;36.00
41142;SHT31;63666;52.284;20.890;2023-02-28T03:44:17;19.17;36.03
41142;SHT31;63666;52.284;20.890;2023-02-28T03:46:54;19.16;36.04
41142;SHT31;63666;52.284;20.890;2023-02-28T03:49:31;19.15;36.05
41142;SHT31;63666;52.284;20.890;2023-02-28T03:52:07;19.15;36.07
41142;SHT31;63666;52.284;20.890;2023-02-28T03:54:39;19.11;36.11
41142;SHT31;63666;52.284;20.890;2023-02-28T03:57:15;19.11;36.09
41142;SHT31;63666;52.284;20.890;2023-02-28T03:59:56;19.09;36.15
41142;SHT31;63666;52.284;20.890;2023-02-28T04:02:30;19.11;36.06
41142;SHT31;63666;52.284;20.890;2023-02-28T04:05:01;19.08;36.12
41142;SHT31;63666;52.284;20.890;2023-02-28T04:07:32;19.05;36.11
41142;SHT31;63666;52.284;20.890;2023-02-28T04:10:04;19.05;36.15
41142;SHT31;63666;52.284;20.890;2023-02-28T04:12:39;19.05;36.11
41142;SHT31;63666;52.284;20.890;2023-02-28T04:15:16;19.05;36.13
41142;SHT31;63666;52.284;20.890;2023-02-28T04:17:52;19.03;36.12
41142;SHT31;63666;52.284;20.890;2023-02-28T04:20:22;19.03;36.08
41142;SHT31;63666;52.284;20.890;2023-02-28T04:22:54;19.03;36.07
41142;SHT31;63666;52.284;20.890;2023-02-28T04:25:33;19.00;36.11
41142;SHT31;63666;52.284;20.890;2023-02-28T04:28:03;19.02;36.03
41142;SHT31;63666;52.284;20.890;2023-02-28T04:30:40;19.01;36.07
41142;SHT31;63666;52.284;20.890;2023-02-28T04:33:13;18.98;36.10
41142;SHT31;63666;52.284;20.890;2023-02-28T04:35:43;18.98;36.05
41142;SHT31;63666;52.284;20.890;2023-02-28T04:38:16;18.98;36.05
41142;SHT31;63666;52.284;20.890;2023-02-28T04:40:51;18.97;36.10
41142;SHT31;63666;52.284;20.890;2023-02-28T04:43:22;18.98;36.11
41142;SHT31;63666;52.284;20.890;2023-02-28T04:45:57;18.97;36.23
41142;SHT31;63666;52.284;20.890;2023-02-28T04:48:31;18.98;36.33
41142;SHT31;63666;52.284;20.890;2023-02-28T04:51:06;19.00;36.36
41142;SHT31;63666;52.284;20.890;2023-02-28T04:53:40;19.01;36.46
41142;SHT31;63666;52.284;20.890;2023-02-28T04:56:13;19.02;36.44
41142;SHT31;63666;52.284;20.890;2023-02-28T04:58:52;19.04;36.41
41142;SHT31;63666;52.284;20.890;2023-02-28T05:01:23;19.11;36.26
41142;SHT31;63666;52.284;20.890;2023-02-28T05:03:58;19.17;36.13
41142;SHT31;63666;52.284;20.890;2023-02-28T05:06:33;19.22;35.94
41142;SHT31;63666;52.284;20.890;2023-02-28T05:09:04;19.29;35.82
41142;SHT31;63666;52.284;20.890;2023-02-28T05:11:39;19.35;35.64
41142;SHT31;63666;52.284;20.890;2023-02-28T05:14:11;19.39;35.51
41142;SHT31;63666;52.284;20.890;2023-02-28T05:16:45;19.43;35.43
41142;SHT31;63666;52.284;20.890;2023-02-28T05:19:22;19.48;35.31
41142;SHT31;63666;52.284;20.890;2023-02-28T05:21:55;19.53;35.21
41142;SHT31;63666;52.284;20.890;2023-02-28T05:24:27;19.56;35.15
41142;SHT31;63666;52.284;20.890;2023-02-28T05:26:58;19.59;35.11
41142;SHT31;63666;52.284;20.890;2023-02-28T05:29:28;19.63;35.21
41142;SHT31;63666;52.284;20.890;2023-02-28T05:32:09;19.67;35.21
41142;SHT31;63666;52.284;20.890;2023-02-28T05:34:44;19.68;35.29
41142;SHT31;63666;52.284;20.890;2023-02-28T05:37:20;19.70;35.31
41142;SHT31;63666;52.284;20.890;2023-02-28T05:39:56;19.76;35.31
41142;SHT31;63666;52.284;20.890;2023-02-28T05:42:27;19.83;35.81
41142;SHT31;63666;52.284;20.890;2023-02-28T05:44:59;19.87;35.91
41142;SHT31;63666;52.284;20.890;2023-02-28T05:47:33;19.88;35.84
41142;SHT31;63666;52.284;20.890;2023-02-28T05:50:03;19.90;35.91
41142;SHT31;63666;52.284;20.890;2023-02-28T05:52:38;19.94;35.93
41142;SHT31;63666;52.284;20.890;2023-02-28T05:55:09;19.98;35.91
41142;SHT31;63666;52.284;20.890;2023-02-28T05:57:39;20.01;35.98
41142;SHT31;63666;52.284;20.890;2023-02-28T06:00:14;20.06;36.32
41142;SHT31;63666;52.284;20.890;2023-02-28T06:02:46;20.09;36.43
41142;SHT31;63666;52.284;20.890;2023-02-28T06:05:19;20.12;36.44
41142;SHT31;63666;52.284;20.890;2023-02-28T06:07:51;20.16;36.40
41142;SHT31;63666;52.284;20.890;2023-02-28T06:10:21;20.18;36.35
41142;SHT31;63666;52.284;20.890;2023-02-28T06:12:51;20.20;36.24
41142;SHT31;63666;52.284;20.890;2023-02-28T06:15:21;20.22;36.05
41142;SHT31;63666;52.284;20.890;2023-02-28T06:17:51;20.22;35.91
41142;SHT31;63666;52.284;20.890;2023-02-28T06:20:24;20.25;35.78
41142;SHT31;63666;52.284;20.890;2023-02-28T06:22:57;20.29;35.64
41142;SHT31;63666;52.284;20.890;2023-02-28T06:25:32;20.31;35.55
41142;SHT31;63666;52.284;20.890;2023-02-28T06:28:02;20.35;35.58
41142;SHT31;63666;52.284;20.890;2023-02-28T06:30:33;20.39;35.50
41142;SHT31;63666;52.284;20.890;2023-02-28T06:33:06;20.42;35.46
41142;SHT31;63666;52.284;20.890;2023-02-28T06:35:35;20.46;35.40
41142;SHT31;63666;52.284;20.890;2023-02-28T06:38:08;20.49;35.34
41142;SHT31;63666;52.284;20.890;2023-02-28T06:40:38;20.51;35.30
41142;SHT31;63666;52.284;20.890;2023-02-28T06:43:13;20.55;35.28
41142;SHT31;63666;52.284;20.890;2023-02-28T06:45:44;20.57;35.21
41142;SHT31;63666;52.284;20.890;2023-02-28T06:48:14;20.76;37.43
41142;SHT31;63666;52.284;20.890;2023-02-28T06:50:46;20.87;37.46
41142;SHT31;63666;52.284;20.890;2023-02-28T06:53:18;20.95;37.40
41142;SHT31;63666;52.284;20.890;2023-02-28T06:55:48;21.02;37.10
41142;SHT31;63666;52.284;20.890;2023-02-28T06:58:24;21.09;37.27
41142;SHT31;63666;52.284;20.890;2023-02-28T07:00:55;21.15;37.17
41142;SHT31;63666;52.284;20.890;2023-02-28T07:03:28;21.22;37.14
41142;SHT31;63666;52.284;20.890;2023-02-28T07:06:04;21.30;38.00
41142;SHT31;63666;52.284;20.890;2023-02-28T07:08:35;21.37;38.17
41142;SHT31;63666;52.284;20.890;2023-02-28T07:11:05;21.42;37.87
41142;SHT31;63666;52.284;20.890;2023-02-28T07:13:35;21.42;37.51
41142;SHT31;63666;52.284;20.890;2023-02-28T07:16:07;21.43;36.93
41142;SHT31;63666;52.284;20.890;2023-02-28T07:18:41;21.48;36.63
41142;SHT31;63666;52.284;20.890;2023-02-28T07:21:12;21.64;36.08
41142;SHT31;63666;52.284;20.890;2023-02-28T07:23:45;21.78;36.32
41142;SHT31;63666;52.284;20.890;2023-02-28T07:26:15;21.81;36.03
41142;SHT31;63666;52.284;20.890;2023-02-28T07:28:49;21.84;35.89
41142;SHT31;63666;52.284;20.890;2023-02-28T07:31:21;21.85;36.17
41142;SHT31;63666;52.284;20.890;2023-02-28T07:33:53;21.82;36.54
41142;SHT31;63666;52.284;20.890;2023-02-28T07:36:23;21.85;36.42
41142;SHT31;63666;52.284;20.890;2023-02-28T07:38:54;21.90;36.27
41142;SHT31;63666;52.284;20.890;2023-02-28T07:41:25;21.89;36.29
41142;SHT31;63666;52.284;20.890;2023-02-28T07:44:00;21.89;36.73
41142;SHT31;63666;52.284;20.890;2023-02-28T07:46:33;21.95;35.37
41142;SHT31;63666;52.284;20.890;2023-02-28T07:49:04;21.98;35.11
41142;SHT31;63666;52.284;20.890;2023-02-28T07:51:35;22.03;34.94
41142;SHT31;63666;52.284;20.890;2023-02-28T07:54:08;22.13;34.61
41142;SHT31;63666;52.284;20.890;2023-02-28T07:56:37;22.22;34.10
41142;SHT31;63666;52.284;20.890;2023-02-28T07:59:08;22.27;34.15
41142;SHT31;63666;52.284;20.890;2023-02-28T08:01:39;23.81;33.10
41142;SHT31;63666;52.284;20.890;2023-02-28T08:04:13;24.97;32.52
41142;SHT31;63666;52.284;20.890;2023-02-28T08:06:46;25.54;31.67
41142;SHT31;63666;52.284;20.890;2023-02-28T08:09:19;25.92;30.42
41142;SHT31;63666;52.284;20.890;2023-02-28T08:11:50;24.13;31.42
41142;SHT31;63666;52.284;20.890;2023-02-28T08:14:25;23.08;32.43
41142;SHT31;63666;52.284;20.890;2023-02-28T08:16:55;22.75;33.04
41142;SHT31;63666;52.284;20.890;2023-02-28T08:19:28;22.64;34.07
41142;SHT31;63666;52.284;20.890;2023-02-28T08:22:00;22.70;34.01
41142;SHT31;63666;52.284;20.890;2023-02-28T08:24:31;22.91;32.73
41142;SHT31;63666;52.284;20.890;2023-02-28T08:27:08;22.79;32.98
41142;SHT31;63666;52.284;20.890;2023-02-28T08:29:39;22.06;32.83
41142;SHT31;63666;52.284;20.890;2023-02-28T08:32:13;21.66;32.93
41142;SHT31;63666;52.284;20.890;2023-02-28T08:34:57;22.34;33.23
41142;SHT31;63666;52.284;20.890;2023-02-28T08:37:34;22.60;32.45
41142;SHT31;63666;52.284;20.890;2023-02-28T08:40:06;22.60;32.18
41142;SHT31;63666;52.284;20.890;2023-02-28T08:42:43;22.19;32.33
41142;SHT31;63666;52.284;20.890;2023-02-28T08:45:16;22.44;32.58
41142;SHT31;63666;52.284;20.890;2023-02-28T08:47:48;22.71;31.71
41142;SHT31;63666;52.284;20.890;2023-02-28T08:50:23;22.69;31.60
41142;SHT31;63666;52.284;20.890;2023-02-28T08:52:59;22.76;31.79
41142;SHT31;63666;52.284;20.890;2023-02-28T08:55:35;22.82;31.78
41142;SHT31;63666;52.284;20.890;2023-02-28T08:58:10;22.90;31.82
41142;SHT31;63666;52.284;20.890;2023-02-28T09:00:43;23.08;31.71
41142;SHT31;63666;52.284;20.890;2023-02-28T09:03:18;23.07;31.12
41142;SHT31;63666;52.284;20.890;2023-02-28T09:05:55;22.96;31.75
41142;SHT31;63666;52.284;20.890;2023-02-28T09:08:32;23.10;31.70
41142;SHT31;63666;52.284;20.890;2023-02-28T09:11:08;23.10;31.22
41142;SHT31;63666;52.284;20.890;2023-02-28T09:13:41;22.71;30.61
41142;SHT31;63666;52.284;20.890;2023-02-28T09:16:12;22.47;31.05
41142;SHT31;63666;52.284;20.890;2023-02-28T09:18:44;21.15;30.74
41142;SHT31;63666;52.284;20.890;2023-02-28T09:21:16;19.92;33.64
41142;SHT31;63666;52.284;20.890;2023-02-28T09:23:49;21.30;32.43
41142;SHT31;63666;52.284;20.890;2023-02-28T09:26:22;21.71;31.87
41142;SHT31;63666;52.284;20.890;2023-02-28T09:29:09;22.18;31.16
41142;SHT31;63666;52.284;20.890;2023-02-28T09:31:40;21.91;30.61
41142;SHT31;63666;52.284;20.890;2023-02-28T09:34:11;20.78;31.93
41142;SHT31;63666;52.284;20.890;2023-02-28T09:36:45;21.62;31.85
41142;SHT31;63666;52.284;20.890;2023-02-28T09:39:18;21.77;31.00
41142;SHT31;63666;52.284;20.890;2023-02-28T09:41:54;20.52;31.67
41142;SHT31;63666;52.284;20.890;2023-02-28T09:44:30;20.09;32.90
41142;SHT31;63666;52.284;20.890;2023-02-28T09:47:13;21.14;32.82
41142;SHT31;63666;52.284;20.890;2023-02-28T09:49:49;21.81;31.72
41142;SHT31;63666;52.284;20.890;2023-02-28T09:52:28;22.08;32.00
41142;SHT31;63666;52.284;20.890;2023-02-28T09:55:04;22.38;31.73
41142;SHT31;63666;52.284;20.890;2023-02-28T09:57:58;22.54;31.63
41142;SHT31;63666;52.284;20.890;2023-02-28T10:00:30;22.56;31.69
41142;SHT31;63666;52.284;20.890;2023-02-28T10:03:10;22.58;31.55
41142;SHT31;63666;52.284;20.890;2023-02-28T10:05:58;22.62;31.71
41142;SHT31;63666;52.284;20.890;2023-02-28T10:08:38;22.79;31.62
41142;SHT31;63666;52.284;20.890;2023-02-28T10:11:26;22.89;30.12
41142;SHT31;63666;52.284;20.890;2023-02-28T10:14:00;22.95;29.97
41142;SHT31;63666;52.284;20.890;2023-02-28T10:16:41;23.00;29.81
41142;SHT31;63666;52.284;20.890;2023-02-28T10:19:25;23.06;29.75
41142;SHT31;63666;52.284;20.890;2023-02-28T10:22:05;23.08;29.67
41142;SHT31;63666;52.284;20.890;2023-02-28T10:24:46;23.00;29.71
41142;SHT31;63666;52.284;20.890;2023-02-28T10:27:24;22.89;29.75
41142;SHT31;63666;52.284;20.890;2023-02-28T10:30:01;22.93;30.44
41142;SHT31;63666;52.284;20.890;2023-02-28T10:32:40;23.03;30.23
41142;SHT31;63666;52.284;20.890;2023-02-28T10:35:24;23.03;29.69
41142;SHT31;63666;52.284;20.890;2023-02-28T10:37:55;22.98;29.79
41142;SHT31;63666;52.284;20.890;2023-02-28T10:40:30;22.98;29.78
41142;SHT31;63666;52.284;20.890;2023-02-28T10:43:19;23.14;29.51
41142;SHT31;63666;52.284;20.890;2023-02-28T10:45:54;23.23;29.66
41142;SHT31;63666;52.284;20.890;2023-02-28T10:48:45;23.25;29.53
41142;SHT31;63666;52.284;20.890;2023-02-28T10:51:28;23.29;29.51
41142;SHT31;63666;52.284;20.890;2023-02-28T10:54:14;23.31;29.49
41142;SHT31;63666;52.284;20.890;2023-02-28T10:57:15;23.20;29.55
41142;SHT31;63666;52.284;20.890;2023-02-28T10:59:51;22.98;29.71
41142;SHT31;63666;52.284;20.890;2023-02-28T11:02:42;22.94;29.78
41142;SHT31;63666;52.284;20.890;2023-02-28T11:05:26;23.00;29.66
41142;SHT31;63666;52.284;20.890;2023-02-28T11:08:10;22.92;29.86
41142;SHT31;63666;52.284;20.890;2023-02-28T11:10:45;22.83;29.95
41142;SHT31;63666;52.284;20.890;2023-02-28T11:13:28;22.77;30.12
41142;SHT31;63666;52.284;20.890;2023-02-28T11:16:06;22.73;30.15
41142;SHT31;63666;52.284;20.890;2023-02-28T11:18:40;22.71;30.23
41142;SHT31;63666;52.284;20.890;2023-02-28T11:21:18;22.66;30.24
41142;SHT31;63666;52.284;20.890;2023-02-28T11:23:54;22.62;30.27
41142;SHT31;63666;52.284;20.890;2023-02-28T11:26:39;22.58;30.34
41142;SHT31;63666;52.284;20.890;2023-02-28T11:29:16;22.56;30.36
41142;SHT31;63666;52.284;20.890;2023-02-28T11:32:09;22.51;30.44
41142;SHT31;63666;52.284;20.890;2023-02-28T11:34:44;22.49;30.44
41142;SHT31;63666;52.284;20.890;2023-02-28T11:37:18;22.45;30.49
41142;SHT31;63666;52.284;20.890;2023-02-28T11:39:54;22.43;30.51
41142;SHT31;63666;52.284;20.890;2023-02-28T11:45:29;22.41;30.46
41142;SHT31;63666;52.284;20.890;2023-02-28T11:48:17;22.37;30.49
41142;SHT31;63666;52.284;20.890;2023-02-28T11:50:59;22.33;30.52
41142;SHT31;63666;52.284;20.890;2023-02-28T11:53:44;22.30;30.55
41142;SHT31;63666;52.284;20.890;2023-02-28T11:56:37;22.31;30.49
41142;SHT31;63666;52.284;20.890;2023-02-28T12:02:19;22.31;30.43
41142;SHT31;63666;52.284;20.890;2023-02-28T12:05:03;22.30;30.40
41142;SHT31;63666;52.284;20.890;2023-02-28T12:07:53;22.30;30.40
41142;SHT31;63666;52.284;20.890;2023-02-28T12:10:35;22.27;30.44
41142;SHT31;63666;52.284;20.890;2023-02-28T12:13:25;22.27;30.42
41142;SHT31;63666;52.284;20.890;2023-02-28T12:16:23;22.26;30.41
41142;SHT31;63666;52.284;20.890;2023-02-28T12:19:06;22.25;30.44
41142;SHT31;63666;52.284;20.890;2023-02-28T12:24:58;22.24;30.39
41142;SHT31;63666;52.284;20.890;2023-02-28T12:27:48;22.25;30.36
41142;SHT31;63666;52.284;20.890;2023-02-28T12:30:22;22.26;30.30
41142;SHT31;63666;52.284;20.890;2023-02-28T12:32:55;22.25;30.32
41142;SHT31;63666;52.284;20.890;2023-02-28T12:35:33;22.26;30.31
41142;SHT31;63666;52.284;20.890;2023-02-28T12:38:08;22.26;30.30
41142;SHT31;63666;52.284;20.890;2023-02-28T12:40:48;22.27;30.30
41142;SHT31;63666;52.284;20.890;2023-02-28T12:43:27;22.34;31.24
41142;SHT31;63666;52.284;20.890;2023-02-28T12:46:09;22.40;31.83
41142;SHT31;63666;52.284;20.890;2023-02-28T12:48:48;22.57;32.13
41142;SHT31;63666;52.284;20.890;2023-02-28T12:51:25;22.74;32.32
41142;SHT31;63666;52.284;20.890;2023-02-28T12:54:02;22.85;32.47
41142;SHT31;63666;52.284;20.890;2023-02-28T12:56:46;21.35;30.73
41142;SHT31;63666;52.284;20.890;2023-02-28T12:59:30;21.04;33.58
41142;SHT31;63666;52.284;20.890;2023-02-28T13:02:18;22.28;31.96
41142;SHT31;63666;52.284;20.890;2023-02-28T13:11:43;22.82;30.67
41142;SHT31;63666;52.284;20.890;2023-02-28T13:14:26;22.90;30.53
41142;SHT31;63666;52.284;20.890;2023-02-28T13:17:10;22.95;30.42
41142;SHT31;63666;52.284;20.890;2023-02-28T13:19:56;23.02;30.35
41142;SHT31;63666;52.284;20.890;2023-02-28T13:22:37;23.06;30.23
41142;SHT31;63666;52.284;20.890;2023-02-28T13:35:14;23.15;30.12
41142;SHT31;63666;52.284;20.890;2023-02-28T13:38:31;23.21;29.95
41142;SHT31;63666;52.284;20.890;2023-02-28T13:44:18;23.14;29.96
41142;SHT31;63666;52.284;20.890;2023-02-28T13:49:56;23.11;30.03
41142;SHT31;63666;52.284;20.890;2023-02-28T13:52:52;23.19;29.88
41142;SHT31;63666;52.284;20.890;2023-02-28T13:55:50;23.14;29.81
41142;SHT31;63666;52.284;20.890;2023-02-28T13:58:37;23.19;29.87
41142;SHT31;63666;52.284;20.890;2023-02-28T14:07:30;23.09;29.83
41142;SHT31;63666;52.284;20.890;2023-02-28T14:10:07;23.07;29.85
41142;SHT31;63666;52.284;20.890;2023-02-28T14:13:01;23.13;29.72
41142;SHT31;63666;52.284;20.890;2023-02-28T14:16:06;23.05;29.98
41142;SHT31;63666;52.284;20.890;2023-02-28T14:18:42;23.03;30.03
41142;SHT31;63666;52.284;20.890;2023-02-28T14:21:22;23.05;29.88
41142;SHT31;63666;52.284;20.890;2023-02-28T14:27:30;23.00;29.87
41142;SHT31;63666;52.284;20.890;2023-02-28T14:30:31;23.02;29.88
41142;SHT31;63666;52.284;20.890;2023-02-28T14:33:25;23.01;29.87
41142;SHT31;63666;52.284;20.890;2023-02-28T14:36:13;23.01;29.92
41142;SHT31;63666;52.284;20.890;2023-02-28T14:38:51;22.94;29.96
41142;SHT31;63666;52.284;20.890;2023-02-28T14:41:29;22.87;30.17
41142;SHT31;63666;52.284;20.890;2023-02-28T14:44:03;22.67;30.51
41142;SHT31;63666;52.284;20.890;2023-02-28T14:46:44;22.62;30.56
41142;SHT31;63666;52.284;20.890;2023-02-28T14:49:21;22.59;30.62
41142;SHT31;63666;52.284;20.890;2023-02-28T14:52:01;22.55;30.63
41142;SHT31;63666;52.284;20.890;2023-02-28T14:54:39;22.39;31.84
41142;SHT31;63666;52.284;20.890;2023-02-28T14:57:21;22.28;32.38
41142;SHT31;63666;52.284;20.890;2023-02-28T15:00:11;22.23;32.39
41142;SHT31;63666;52.284;20.890;2023-02-28T15:02:57;22.19;32.25
41142;SHT31;63666;52.284;20.890;2023-02-28T15:05:29;22.14;32.47
41142;SHT31;63666;52.284;20.890;2023-02-28T15:08:04;22.12;32.43
41142;SHT31;63666;52.284;20.890;2023-02-28T15:10:42;22.08;32.31
41142;SHT31;63666;52.284;20.890;2023-02-28T15:13:14;22.05;32.66
41142;SHT31;63666;52.284;20.890;2023-02-28T15:15:52;22.02;32.42
41142;SHT31;63666;52.284;20.890;2023-02-28T15:18:33;21.99;32.71
41142;SHT31;63666;52.284;20.890;2023-02-28T15:21:20;21.92;32.88
41142;SHT31;63666;52.284;20.890;2023-02-28T15:23:59;21.88;32.51
41142;SHT31;63666;52.284;20.890;2023-02-28T15:26:38;21.92;32.36
41142;SHT31;63666;52.284;20.890;2023-02-28T15:29:11;21.93;32.40
41142;SHT31;63666;52.284;20.890;2023-02-28T15:31:48;21.87;33.40
41142;SHT31;63666;52.284;20.890;2023-02-28T15:34:27;21.79;32.93
41142;SHT31;63666;52.284;20.890;2023-02-28T15:40:22;21.70;32.54
41142;SHT31;63666;52.284;20.890;2023-02-28T15:43:00;21.67;32.79
41142;SHT31;63666;52.284;20.890;2023-02-28T15:45:40;21.63;33.10
41142;SHT31;63666;52.284;20.890;2023-02-28T15:48:17;21.60;32.64
41142;SHT31;63666;52.284;20.890;2023-02-28T15:50:52;21.59;32.80
41142;SHT31;63666;52.284;20.890;2023-02-28T15:53:31;21.60;32.54
41142;SHT31;63666;52.284;20.890;2023-02-28T15:56:12;21.60;32.43
41142;SHT31;63666;52.284;20.890;2023-02-28T15:58:53;21.62;32.32
41142;SHT31;63666;52.284;20.890;2023-02-28T16:01:32;21.65;32.30
41142;SHT31;63666;52.284;20.890;2023-02-28T16:04:14;21.70;32.32
41142;SHT31;63666;52.284;20.890;2023-02-28T16:06:47;21.75;32.22
41142;SHT31;63666;52.284;20.890;2023-02-28T16:09:33;21.78;32.42
41142;SHT31;63666;52.284;20.890;2023-02-28T16:12:05;21.83;32.21
41142;SHT31;63666;52.284;20.890;2023-02-28T16:14:40;21.86;32.27
41142;SHT31;63666;52.284;20.890;2023-02-28T16:17:15;21.87;32.29
41142;SHT31;63666;52.284;20.890;2023-02-28T16:19:49;21.86;32.28
41142;SHT31;63666;52.284;20.890;2023-02-28T16:22:26;21.87;32.23
41142;SHT31;63666;52.284;20.890;2023-02-28T16:24:56;21.88;32.37
41142;SHT31;63666;52.284;20.890;2023-02-28T16:27:30;21.89;32.28
41142;SHT31;63666;52.284;20.890;2023-02-28T16:30:06;21.88;32.27
41142;SHT31;63666;52.284;20.890;2023-02-28T16:32:48;21.85;32.32
41142;SHT31;63666;52.284;20.890;2023-02-28T16:35:19;21.86;32.46
41142;SHT31;63666;52.284;20.890;2023-02-28T16:37:54;21.83;32.69
41142;SHT31;63666;52.284;20.890;2023-02-28T16:40:28;21.81;32.83
41142;SHT31;63666;52.284;20.890;2023-02-28T16:43:05;21.80;33.02
41142;SHT31;63666;52.284;20.890;2023-02-28T16:45:44;21.79;33.37
41142;SHT31;63666;52.284;20.890;2023-02-28T16:48:18;21.79;33.49
41142;SHT31;63666;52.284;20.890;2023-02-28T16:50:51;21.77;33.66
41142;SHT31;63666;52.284;20.890;2023-02-28T16:53:24;21.75;33.84
41142;SHT31;63666;52.284;20.890;2023-02-28T16:55:55;21.74;33.96
41142;SHT31;63666;52.284;20.890;2023-02-28T16:58:25;21.72;34.06
41142;SHT31;63666;52.284;20.890;2023-02-28T17:01:00;21.70;34.16
41142;SHT31;63666;52.284;20.890;2023-02-28T17:03:31;21.69;34.16
41142;SHT31;63666;52.284;20.890;2023-02-28T17:06:04;21.68;34.18